createdAt,value
2023-02-14T00:01:20.599Z,20.50
2023-02-14T00:03:49.389Z,20.83
2023-02-14T00:06:16.921Z,20.77
2023-02-14T00:08:44.978Z,21.00
2023-02-14T00:11:13.404Z,21.50
2023-02-14T00:14:00.850Z,20.90
2023-02-14T00:16:28.400Z,21.05
2023-02-14T00:19:04.956Z,20.70
2023-02-14T00:21:35.928Z,21.00
2023-02-14T00:24:04.363Z,20.20
2023-02-14T00:26:31.784Z,20.77
2023-02-14T00:28:59.241Z,21.05
2023-02-14T00:31:26.841Z,20.35
2023-02-14T00:33:55.817Z,20.02
2023-02-14T00:36:23.237Z,19.58
2023-02-14T00:38:51.016Z,21.60
2023-02-14T00:41:21.308Z,21.13
2023-02-14T00:43:49.678Z,21.88
2023-02-14T00:46:18.300Z,20.77
2023-02-14T00:48:45.891Z,20.60
2023-02-14T00:51:13.942Z,21.35
2023-02-14T00:53:41.639Z,22.15
2023-02-14T00:56:09.268Z,21.73
2023-02-14T00:58:36.814Z,20.33
2023-02-14T01:01:04.434Z,21.30
2023-02-14T01:03:32.321Z,21.20
2023-02-14T01:05:59.758Z,21.38
2023-02-14T01:08:27.274Z,20.58
2023-02-14T01:10:54.706Z,21.42
2023-02-14T01:13:22.555Z,21.05
2023-02-14T01:15:51.374Z,20.15
2023-02-14T01:18:19.622Z,19.17
2023-02-14T01:20:49.296Z,19.15
2023-02-14T01:23:16.760Z,18.30
2023-02-14T01:25:44.161Z,18.55
2023-02-14T01:28:11.659Z,17.35
2023-02-14T01:30:40.828Z,18.38
2023-02-14T01:33:10.474Z,18.15
2023-02-14T01:35:38.845Z,17.85
2023-02-14T01:38:06.385Z,17.67
2023-02-14T01:40:34.507Z,17.40
2023-02-14T01:43:05.083Z,17.25
2023-02-14T01:45:32.707Z,17.20
2023-02-14T01:48:00.170Z,18.00
2023-02-14T01:50:32.516Z,17.45
2023-02-14T01:53:02.519Z,17.88
2023-02-14T01:55:32.283Z,17.45
2023-02-14T01:58:03.334Z,17.17
2023-02-14T02:00:50.134Z,18.15
2023-02-14T02:03:18.515Z,19.15
2023-02-14T02:05:49.346Z,18.33
2023-02-14T02:08:17.013Z,18.23
2023-02-14T02:10:44.955Z,17.98
2023-02-14T02:13:19.763Z,18.08
2023-02-14T02:15:56.250Z,19.50
2023-02-14T02:18:23.715Z,17.73
2023-02-14T02:20:55.192Z,19.13
2023-02-14T02:23:33.019Z,18.13
2023-02-14T02:26:03.465Z,18.17
2023-02-14T02:28:43.163Z,18.30
2023-02-14T02:31:13.727Z,18.17
2023-02-14T02:33:41.319Z,18.23
2023-02-14T02:36:41.336Z,17.95
2023-02-14T02:39:08.832Z,18.60
2023-02-14T02:41:42.304Z,17.85
2023-02-14T02:44:12.829Z,18.27
2023-02-14T02:46:50.110Z,18.45
2023-02-14T02:49:51.271Z,18.33
2023-02-14T02:52:37.222Z,16.70
2023-02-14T02:55:07.811Z,17.17
2023-02-14T02:57:37.547Z,19.25
2023-02-14T03:00:06.693Z,17.73
2023-02-14T03:02:56.786Z,17.60
2023-02-14T03:05:24.432Z,17.77
2023-02-14T03:07:52.197Z,17.90
2023-02-14T03:10:21.928Z,18.92
2023-02-14T03:13:09.221Z,18.27
2023-02-14T03:15:36.749Z,18.17
2023-02-14T03:18:13.866Z,18.95
2023-02-14T03:21:04.315Z,18.33
2023-02-14T03:23:36.091Z,18.27
2023-02-14T03:26:43.663Z,17.67
2023-02-14T03:29:17.609Z,18.38
2023-02-14T03:31:57.135Z,17.67
2023-02-14T03:34:34.093Z,19.38
2023-02-14T03:37:23.235Z,18.85
2023-02-14T03:39:50.818Z,19.50
2023-02-14T03:42:42.181Z,20.95
2023-02-14T03:45:11.534Z,19.85
2023-02-14T03:47:41.905Z,20.55
2023-02-14T03:50:17.744Z,20.63
2023-02-14T03:52:45.816Z,20.85
2023-02-14T03:55:15.724Z,19.73
2023-02-14T03:58:01.623Z,22.10
2023-02-14T04:00:31.221Z,19.92
2023-02-14T04:03:02.179Z,20.13
2023-02-14T04:05:29.685Z,20.05
2023-02-14T04:07:58.348Z,21.42
2023-02-14T04:10:26.234Z,20.30
2023-02-14T04:12:54.002Z,20.77
2023-02-14T04:15:21.455Z,19.75
2023-02-14T04:18:07.439Z,20.85
2023-02-14T04:20:34.945Z,19.83
2023-02-14T04:23:03.551Z,21.90
2023-02-14T04:25:31.153Z,20.73
2023-02-14T04:27:58.609Z,20.80
2023-02-14T04:30:26.059Z,20.73
2023-02-14T04:32:53.658Z,21.35
2023-02-14T04:35:21.092Z,20.50
2023-02-14T04:37:48.563Z,20.55
2023-02-14T04:40:17.565Z,20.75
2023-02-14T04:42:45.608Z,20.15
2023-02-14T04:45:13.164Z,20.60
2023-02-14T04:47:40.799Z,19.95
2023-02-14T04:50:08.622Z,21.35
2023-02-14T04:52:36.149Z,21.92
2023-02-14T04:55:04.565Z,21.77
2023-02-14T04:57:32.124Z,24.23
2023-02-14T04:59:59.557Z,21.45
2023-02-14T05:02:27.076Z,23.25
2023-02-14T05:04:54.534Z,23.88
2023-02-14T05:07:21.970Z,25.55
2023-02-14T05:09:49.503Z,25.23
2023-02-14T05:12:17.396Z,24.38
2023-02-14T05:14:44.853Z,23.25
2023-02-14T05:17:12.338Z,24.38
2023-02-14T05:19:39.718Z,26.27
2023-02-14T05:22:07.429Z,27.42
2023-02-14T05:24:35.040Z,29.05
2023-02-14T05:27:02.513Z,29.20
2023-02-14T05:29:29.967Z,28.55
2023-02-14T05:31:57.529Z,29.98
2023-02-14T05:34:24.907Z,31.17
2023-02-14T05:36:52.404Z,27.65
2023-02-14T05:39:19.861Z,26.58
2023-02-14T05:41:47.342Z,27.88
2023-02-14T05:44:14.707Z,26.15
2023-02-14T05:46:42.172Z,26.42
2023-02-14T05:49:09.739Z,27.48
2023-02-14T05:51:37.277Z,25.38
2023-02-14T05:54:04.743Z,27.65
2023-02-14T05:56:32.208Z,27.25
2023-02-14T05:58:59.751Z,28.30
2023-02-14T06:01:27.261Z,29.63
2023-02-14T06:03:54.758Z,29.30
2023-02-14T06:06:22.187Z,27.80
2023-02-14T06:08:49.828Z,26.90
2023-02-14T06:11:17.233Z,26.55
2023-02-14T06:13:44.966Z,26.27
2023-02-14T06:16:12.423Z,25.13
2023-02-14T06:18:39.908Z,26.48
2023-02-14T06:21:07.415Z,27.52
2023-02-14T06:23:34.867Z,26.73
2023-02-14T06:26:02.405Z,25.38
2023-02-14T06:28:29.859Z,25.67
2023-02-14T06:30:57.598Z,25.58
2023-02-14T06:33:25.092Z,25.63
2023-02-14T06:35:54.477Z,26.90
2023-02-14T06:38:21.901Z,25.95
2023-02-14T06:40:49.280Z,24.98
2023-02-14T06:43:16.734Z,26.63
2023-02-14T06:45:44.380Z,27.80
2023-02-14T06:48:11.942Z,26.75
2023-02-14T06:50:39.306Z,27.27
2023-02-14T06:53:06.750Z,28.00
2023-02-14T06:55:34.209Z,28.88
2023-02-14T06:58:01.676Z,30.05
2023-02-14T07:00:29.080Z,30.83
2023-02-14T07:02:56.583Z,30.65
2023-02-14T07:05:24.113Z,29.67
2023-02-14T07:07:51.841Z,28.73
2023-02-14T07:10:19.383Z,28.52
2023-02-14T07:12:46.810Z,28.75
2023-02-14T07:15:14.485Z,28.48
2023-02-14T07:17:42.150Z,30.17
2023-02-14T07:20:11.122Z,30.70
2023-02-14T07:22:39.178Z,29.85
2023-02-14T07:25:07.768Z,28.63
2023-02-14T07:27:35.365Z,29.58
2023-02-14T07:30:02.902Z,28.38
2023-02-14T07:32:30.417Z,30.63
2023-02-14T07:34:57.858Z,31.42
2023-02-14T07:37:25.327Z,31.10
2023-02-14T07:39:52.834Z,30.65
2023-02-14T07:42:20.294Z,34.15
2023-02-14T07:44:47.758Z,34.00
2023-02-14T07:47:15.195Z,34.22
2023-02-14T07:49:42.606Z,35.63
2023-02-14T07:52:10.375Z,35.80
2023-02-14T07:54:38.834Z,35.83
2023-02-14T07:57:06.324Z,35.15
2023-02-14T07:59:33.791Z,35.08
2023-02-14T08:02:01.233Z,36.47
2023-02-14T08:04:29.100Z,36.45
2023-02-14T08:06:56.592Z,37.45
2023-02-14T08:09:24.876Z,38.38
2023-02-14T08:12:14.863Z,38.72
2023-02-14T08:14:42.760Z,41.92
2023-02-14T08:17:10.953Z,41.25
2023-02-14T08:19:38.486Z,42.95
2023-02-14T08:22:06.234Z,41.40
2023-02-14T08:24:33.687Z,38.58
2023-02-14T08:27:01.127Z,37.58
2023-02-14T08:29:28.623Z,38.50
2023-02-14T08:31:56.133Z,39.30
2023-02-14T08:34:23.689Z,39.55
2023-02-14T08:36:52.125Z,40.58
2023-02-14T08:39:19.517Z,41.20
2023-02-14T08:41:46.916Z,41.65
2023-02-14T08:44:16.495Z,40.90
2023-02-14T08:46:44.063Z,38.55
2023-02-14T08:49:11.535Z,40.40
2023-02-14T08:51:39.026Z,38.95
2023-02-14T08:54:06.869Z,42.50
2023-02-14T08:56:34.333Z,38.00
2023-02-14T08:59:01.837Z,37.28
2023-02-14T09:01:29.432Z,38.97
2023-02-14T09:03:57.112Z,37.05
2023-02-14T09:06:24.806Z,36.13
2023-02-14T09:08:54.272Z,37.08
2023-02-14T09:11:23.921Z,39.00
2023-02-14T09:13:53.250Z,40.10
2023-02-14T09:16:21.258Z,39.58
2023-02-14T09:18:49.549Z,40.42
2023-02-14T09:21:21.798Z,40.53
2023-02-14T09:23:49.266Z,41.33
2023-02-14T09:26:16.980Z,40.70
2023-02-14T09:28:44.576Z,40.72
2023-02-14T09:31:19.487Z,41.22
2023-02-14T09:33:47.771Z,39.83
2023-02-14T09:36:34.039Z,40.78
2023-02-14T09:39:03.042Z,39.35
2023-02-14T09:41:30.527Z,42.80
2023-02-14T09:44:02.684Z,41.33
2023-02-14T09:46:31.717Z,43.33
2023-02-14T09:48:59.508Z,45.47
2023-02-14T09:51:28.537Z,46.75
2023-02-14T09:53:56.082Z,48.20
2023-02-14T09:56:26.598Z,49.75
2023-02-14T09:58:54.103Z,48.13
2023-02-14T10:01:27.845Z,47.55
2023-02-14T10:04:01.701Z,48.45
2023-02-14T10:06:32.131Z,50.00
2023-02-14T10:09:09.443Z,51.63
2023-02-14T10:11:38.240Z,52.97
2023-02-14T10:14:10.805Z,50.72
2023-02-14T10:16:44.735Z,50.88
2023-02-14T10:19:22.454Z,51.30
2023-02-14T10:21:54.371Z,49.65
2023-02-14T10:24:28.033Z,48.25
2023-02-14T10:27:12.277Z,49.30
2023-02-14T10:29:40.206Z,50.22
2023-02-14T10:32:13.872Z,50.60
2023-02-14T10:34:41.604Z,44.33
2023-02-14T10:37:21.485Z,43.20
2023-02-14T10:39:58.448Z,44.00
2023-02-14T10:42:52.118Z,45.88
2023-02-14T10:45:19.693Z,47.28
2023-02-14T10:48:09.172Z,47.92
2023-02-14T10:50:56.911Z,47.42
2023-02-14T10:53:24.775Z,44.03
2023-02-14T10:56:09.725Z,44.58
2023-02-14T10:58:39.342Z,42.30
2023-02-14T11:01:09.225Z,37.47
2023-02-14T11:03:38.009Z,34.00
2023-02-14T11:06:05.518Z,34.28
2023-02-14T11:08:34.513Z,32.20
2023-02-14T11:11:05.017Z,33.35
2023-02-14T11:13:34.645Z,31.55
2023-02-14T11:16:06.568Z,32.20
2023-02-14T11:18:36.228Z,29.15
2023-02-14T11:21:06.522Z,28.08
2023-02-14T11:23:35.449Z,30.42
2023-02-14T11:26:03.779Z,29.35
2023-02-14T11:28:31.727Z,29.25
2023-02-14T11:30:59.723Z,31.15
2023-02-14T11:33:34.000Z,28.83
2023-02-14T11:36:03.220Z,27.65
2023-02-14T11:38:34.827Z,27.50
2023-02-14T11:41:02.996Z,26.55
2023-02-14T11:43:34.571Z,23.30
2023-02-14T11:46:13.666Z,21.73
2023-02-14T11:48:55.455Z,21.25
2023-02-14T11:51:27.643Z,20.73
2023-02-14T11:53:56.662Z,20.45
2023-02-14T11:56:24.858Z,20.27
2023-02-14T11:58:52.572Z,19.90
2023-02-14T12:01:25.355Z,19.05
2023-02-14T12:03:53.751Z,19.38
2023-02-14T12:06:25.482Z,17.63
2023-02-14T12:08:53.040Z,18.08
2023-02-14T12:11:20.685Z,17.88
2023-02-14T12:13:55.201Z,17.73
2023-02-14T12:16:27.462Z,17.90
2023-02-14T12:18:55.730Z,18.20
2023-02-14T12:21:32.333Z,18.73
2023-02-14T12:24:12.757Z,17.85
2023-02-14T12:26:46.848Z,19.25
2023-02-14T12:29:26.526Z,19.55
2023-02-14T12:31:55.591Z,23.35
2023-02-14T12:34:23.165Z,18.98
2023-02-14T12:36:50.666Z,22.92
2023-02-14T12:39:44.439Z,20.15
2023-02-14T12:42:41.131Z,20.88
2023-02-14T12:45:16.758Z,19.60
2023-02-14T12:48:07.439Z,20.15
2023-02-14T12:50:38.464Z,20.88
2023-02-14T12:53:06.150Z,19.33
2023-02-14T12:55:46.099Z,22.10
2023-02-14T12:58:32.385Z,20.40
2023-02-14T13:01:06.039Z,19.83
2023-02-14T13:03:39.187Z,19.55
2023-02-14T13:06:25.547Z,19.48
2023-02-14T13:09:08.139Z,19.05
2023-02-14T13:11:55.731Z,19.75
2023-02-14T13:14:32.226Z,18.95
2023-02-14T13:17:18.379Z,18.50
2023-02-14T13:19:54.978Z,17.90
2023-02-14T13:22:23.641Z,17.33
2023-02-14T13:24:59.769Z,17.02
2023-02-14T13:27:29.956Z,15.40
2023-02-14T13:30:00.239Z,15.73
2023-02-14T13:32:31.707Z,17.70
2023-02-14T13:34:59.521Z,16.27
2023-02-14T13:37:27.489Z,16.38
2023-02-14T13:40:09.219Z,16.35
2023-02-14T13:42:48.866Z,15.95
2023-02-14T13:45:40.364Z,15.60
2023-02-14T13:48:13.701Z,16.13
2023-02-14T13:50:49.894Z,15.40
2023-02-14T13:53:36.374Z,16.38
2023-02-14T13:56:05.745Z,16.10
2023-02-14T13:58:34.609Z,16.63
2023-02-14T14:01:22.008Z,16.73
2023-02-14T14:03:57.072Z,16.08
2023-02-14T14:06:24.616Z,15.38
2023-02-14T14:08:55.057Z,16.30
2023-02-14T14:11:22.505Z,16.70
2023-02-14T14:13:53.110Z,18.42
2023-02-14T14:16:26.820Z,18.05
2023-02-14T14:18:56.271Z,18.33
2023-02-14T14:21:31.338Z,18.65
2023-02-14T14:24:17.372Z,18.80
2023-02-14T14:26:50.104Z,19.70
2023-02-14T14:29:26.712Z,19.10
2023-02-14T14:31:57.380Z,19.67
2023-02-14T14:34:26.670Z,20.50
2023-02-14T14:37:04.673Z,19.90
2023-02-14T14:39:33.919Z,20.17
2023-02-14T14:42:09.774Z,20.48
2023-02-14T14:44:37.799Z,21.98
2023-02-14T14:47:05.396Z,24.23
2023-02-14T14:49:33.271Z,22.30
2023-02-14T14:52:00.739Z,23.48
2023-02-14T14:54:30.149Z,22.13
2023-02-14T14:57:01.569Z,21.30
2023-02-14T14:59:35.523Z,18.95
2023-02-14T15:02:03.732Z,17.30
2023-02-14T15:04:35.334Z,18.15
2023-02-14T15:07:19.683Z,18.83
2023-02-14T15:09:47.700Z,17.00
2023-02-14T15:12:36.387Z,17.13
2023-02-14T15:15:05.710Z,17.45
2023-02-14T15:17:33.651Z,17.02
2023-02-14T15:20:02.543Z,16.02
2023-02-14T15:22:42.060Z,16.60
2023-02-14T15:25:11.453Z,16.05
2023-02-14T15:27:42.349Z,15.18
2023-02-14T15:30:23.818Z,16.63
2023-02-14T15:32:52.105Z,15.57
2023-02-14T15:35:24.057Z,15.90
2023-02-14T15:37:52.104Z,16.38
2023-02-14T15:40:24.518Z,15.95
2023-02-14T15:42:57.483Z,17.05
2023-02-14T15:45:30.894Z,17.40
2023-02-14T15:48:06.312Z,16.67
2023-02-14T15:53:09.108Z,17.98
2023-02-14T15:55:37.040Z,21.92
2023-02-14T15:58:06.260Z,20.30
2023-02-14T16:00:34.018Z,20.15
2023-02-14T16:03:03.106Z,17.70
2023-02-14T16:05:30.625Z,17.13
2023-02-14T16:07:58.308Z,15.77
2023-02-14T16:10:34.997Z,15.30
2023-02-14T16:13:06.789Z,16.00
2023-02-14T16:15:35.646Z,16.23
2023-02-14T16:18:08.298Z,16.95
2023-02-14T16:20:40.383Z,16.52
2023-02-14T16:23:16.868Z,17.63
2023-02-14T16:25:44.892Z,23.40
2023-02-14T16:28:12.280Z,21.10
2023-02-14T16:30:40.156Z,18.35
2023-02-14T16:33:13.538Z,16.13
2023-02-14T16:35:40.993Z,16.45
2023-02-14T16:38:12.648Z,15.43
2023-02-14T16:40:43.056Z,14.50
2023-02-14T16:43:14.651Z,14.75
2023-02-14T16:45:42.934Z,15.40
2023-02-14T16:48:10.552Z,15.27
2023-02-14T16:50:39.288Z,15.43
2023-02-14T16:53:13.840Z,14.32
2023-02-14T16:55:41.456Z,15.07
2023-02-14T16:58:09.471Z,13.68
2023-02-14T17:00:38.458Z,12.43
2023-02-14T17:03:10.894Z,13.48
2023-02-14T17:05:38.690Z,13.25
2023-02-14T17:08:07.144Z,13.73
2023-02-14T17:10:35.056Z,13.82
2023-02-14T17:13:03.489Z,13.30
2023-02-14T17:15:31.182Z,14.23
2023-02-14T17:18:01.508Z,14.40
2023-02-14T17:20:29.827Z,16.27
2023-02-14T17:22:58.442Z,15.52
2023-02-14T17:25:26.142Z,15.43
2023-02-14T17:27:53.893Z,14.55
2023-02-14T17:30:21.333Z,13.95
2023-02-14T17:32:49.725Z,14.95
2023-02-14T17:35:17.424Z,27.70
2023-02-14T17:37:45.385Z,31.63
2023-02-14T17:40:13.034Z,35.65
2023-02-14T17:42:40.450Z,33.72
2023-02-14T17:45:08.540Z,35.28
2023-02-14T17:47:36.021Z,40.95
2023-02-14T17:50:04.016Z,51.10
2023-02-14T17:52:32.198Z,59.15
2023-02-14T17:55:00.083Z,51.42
2023-02-14T17:57:27.605Z,42.45
2023-02-14T17:59:55.192Z,44.03
2023-02-14T18:02:22.755Z,37.88
2023-02-14T18:04:50.152Z,30.17
2023-02-14T18:07:17.598Z,28.48
2023-02-14T18:09:45.057Z,19.30
2023-02-14T18:12:15.040Z,15.48
2023-02-14T18:14:42.899Z,14.45
2023-02-14T18:17:12.154Z,14.90
2023-02-14T18:19:39.590Z,15.30
2023-02-14T18:22:06.965Z,15.90
2023-02-14T18:24:36.189Z,15.07
2023-02-14T18:27:05.899Z,15.15
2023-02-14T18:29:34.029Z,15.40
2023-02-14T18:32:01.505Z,14.38
2023-02-14T18:34:30.017Z,14.23
2023-02-14T18:36:57.482Z,14.77
2023-02-14T18:39:25.825Z,14.18
2023-02-14T18:41:53.266Z,16.00
2023-02-14T18:44:21.959Z,15.80
2023-02-14T18:46:49.445Z,16.63
2023-02-14T18:49:16.795Z,16.42
2023-02-14T18:51:44.374Z,15.20
2023-02-14T18:54:12.015Z,16.50
2023-02-14T18:56:39.971Z,17.08
2023-02-14T18:59:08.733Z,16.48
2023-02-14T19:01:37.610Z,17.70
2023-02-14T19:04:06.425Z,17.17
2023-02-14T19:06:34.623Z,17.27
2023-02-14T19:09:03.145Z,17.98
2023-02-14T19:11:32.793Z,18.13
2023-02-14T19:14:01.384Z,18.15
2023-02-14T19:16:31.752Z,18.52
2023-02-14T19:18:59.904Z,18.45
2023-02-14T19:21:30.474Z,20.08
2023-02-14T19:23:58.539Z,19.95
2023-02-14T19:26:27.260Z,20.52
2023-02-14T19:28:56.380Z,20.58
2023-02-14T19:31:24.270Z,20.65
2023-02-14T19:33:51.985Z,21.02
2023-02-14T19:36:20.956Z,21.48
2023-02-14T19:38:50.521Z,21.90
2023-02-14T19:41:19.424Z,23.45
2023-02-14T19:43:47.707Z,20.98
2023-02-14T19:46:15.766Z,21.33
2023-02-14T19:48:44.585Z,21.27
2023-02-14T19:51:25.726Z,19.83
2023-02-14T19:53:53.602Z,20.55
2023-02-14T19:56:25.935Z,20.90
2023-02-14T19:58:53.949Z,20.40
2023-02-14T20:01:27.321Z,21.27
2023-02-14T20:03:54.972Z,20.55
2023-02-14T20:06:22.961Z,19.75
2023-02-14T20:08:50.481Z,20.10
2023-02-14T20:11:20.895Z,20.30
2023-02-14T20:13:48.360Z,19.48
2023-02-14T20:16:15.819Z,19.25
2023-02-14T20:18:43.302Z,20.25
2023-02-14T20:21:16.728Z,19.67
2023-02-14T20:23:44.811Z,19.15
2023-02-14T20:26:15.901Z,19.65
2023-02-14T20:28:43.413Z,20.50
2023-02-14T20:31:12.146Z,20.20
2023-02-14T20:33:39.637Z,20.75
2023-02-14T20:36:08.103Z,20.35
2023-02-14T20:38:35.840Z,20.38
2023-02-14T20:41:08.639Z,19.73
2023-02-14T20:43:36.237Z,19.67
2023-02-14T20:46:04.494Z,21.30
2023-02-14T20:48:32.143Z,20.73
2023-02-14T20:51:00.310Z,20.75
2023-02-14T20:53:27.849Z,19.77
2023-02-14T20:55:55.232Z,19.45
2023-02-14T20:58:22.628Z,20.48
2023-02-14T21:00:50.155Z,19.73
2023-02-14T21:03:17.557Z,20.30
2023-02-14T21:05:48.255Z,19.90
2023-02-14T21:08:16.182Z,18.80
2023-02-14T21:10:43.665Z,18.83
2023-02-14T21:13:11.181Z,20.02
2023-02-14T21:15:38.607Z,19.23
2023-02-14T21:18:06.175Z,19.55
2023-02-14T21:20:33.609Z,19.27
2023-02-14T21:23:01.067Z,19.60
2023-02-14T21:25:28.553Z,20.33
2023-02-14T21:27:55.986Z,19.58
2023-02-14T21:30:23.444Z,18.83
2023-02-14T21:32:51.016Z,19.63
2023-02-14T21:35:18.403Z,19.20
2023-02-14T21:37:45.777Z,20.05
2023-02-14T21:40:13.280Z,18.83
2023-02-14T21:42:40.769Z,19.63
2023-02-14T21:45:27.242Z,19.77
2023-02-14T21:48:14.950Z,19.05
2023-02-14T21:50:42.628Z,18.52
2023-02-14T21:53:10.127Z,18.33
2023-02-14T21:55:38.559Z,19.73
2023-02-14T21:58:05.957Z,18.70
2023-02-14T22:00:33.404Z,19.30
2023-02-14T22:03:00.906Z,18.98
2023-02-14T22:05:28.413Z,19.02
2023-02-14T22:07:55.776Z,19.73
2023-02-14T22:10:23.205Z,18.80
2023-02-14T22:12:50.681Z,19.77
2023-02-14T22:15:18.212Z,19.25
2023-02-14T22:17:46.122Z,20.35
2023-02-14T22:20:13.572Z,19.08
2023-02-14T22:22:41.054Z,18.67
2023-02-14T22:25:08.653Z,20.63
2023-02-14T22:27:38.901Z,18.02
2023-02-14T22:30:07.258Z,18.20
2023-02-14T22:32:34.696Z,19.65
2023-02-14T22:35:02.186Z,18.08
2023-02-14T22:37:29.713Z,18.70
2023-02-14T22:39:57.190Z,18.90
2023-02-14T22:42:24.564Z,18.05
2023-02-14T22:44:52.029Z,18.02
2023-02-14T22:47:19.407Z,18.48
2023-02-14T22:49:46.826Z,17.20
2023-02-14T22:52:14.237Z,19.20
2023-02-14T22:54:41.748Z,17.30
2023-02-14T22:57:09.143Z,18.73
2023-02-14T22:59:36.560Z,17.90
2023-02-14T23:02:04.004Z,18.38
2023-02-14T23:04:31.650Z,18.55
2023-02-14T23:06:59.078Z,22.48
2023-02-14T23:09:26.615Z,20.40
2023-02-14T23:11:54.060Z,18.63
2023-02-14T23:14:40.048Z,19.58
2023-02-14T23:17:26.089Z,18.23
2023-02-14T23:20:12.158Z,19.25
2023-02-14T23:22:41.171Z,19.05
2023-02-14T23:25:10.073Z,18.92
2023-02-14T23:27:43.216Z,22.23
2023-02-14T23:30:12.394Z,19.50
2023-02-14T23:32:39.913Z,19.95
2023-02-14T23:35:07.643Z,18.50
2023-02-14T23:37:35.046Z,18.88
2023-02-14T23:40:02.544Z,18.85
2023-02-14T23:42:30.109Z,18.80
2023-02-14T23:45:17.631Z,17.73
2023-02-14T23:47:45.240Z,18.10
2023-02-14T23:50:12.660Z,17.15
2023-02-14T23:52:41.854Z,17.58
2023-02-14T23:55:09.539Z,17.42
2023-02-14T23:57:37.201Z,16.65
